San Antonio, Texas
Current Conditions -  °F | °C
As of 12:48 AM on Sunday 21 Dec 2014 (Local Time) from KSKF Reporting Station
Overcast Overcast  
Wind Chill: 54°   Ceiling: 2200
Heat Index: 54°   Visibility: 10mi
Dew Point: 48°   Wind: 5mph
Humidity: 82%   Direction: 110°ESE
Pressure: 30.14"   Gusts: NA
Location:  29.42°N, 98.49°W
Report Text: KSKF 210648Z AUTO 11004KT 10SM SCT014 OVC022 12/09 A3014 RMK AO2 CIG 014V022 $
Loading
Personal Weather Stations






























Interactive Weather Map New forecast layout! Learn more

10-Day Weather Forecast

Advertisements
Track Severe Weather on mobile